This is the latest recevied weather packets stored in our database for station/object KA5ZCI. If no packets are shown the sender has not sent any weather packets the latest 10 day(s).
| Time | Temp. | Humidity | Pressure | Rain* | Wind** | Luminosity | Snow |
|---|---|---|---|---|---|---|---|
| 1777458004 | 21.67° C | 94% | 1013 hPa | 0 mm | - | 0 W/m² | - |
| 1777456803 | 21.67° C | 93% | 1012.8 hPa | 0 mm | - | 0 W/m² | - |
| 1777448404 | 21.67° C | 92% | 1013.3 hPa | 0 mm | - | 0 W/m² | - |
| 1777447503 | 21.67° C | 92% | 1013.5 hPa | 0 mm | - | 0 W/m² | - |
| 1777443904 | 22.22° C | 91% | 1014.4 hPa | 0 mm | - | 0 W/m² | - |
| 1777443603 | 22.78° C | 90% | 1014.5 hPa | 0 mm | - | 0 W/m² | - |
| 1777442403 | 22.78° C | 91% | 1015 hPa | 0 mm | - | 0 W/m² | - |
| 1777438504 | 23.33° C | 87% | 1014.8 hPa | 0 mm | - | 0 W/m² | - |
| 1777437004 | 23.33° C | 87% | 1015 hPa | 0 mm | - | 0 W/m² | - |
| 1777436404 | 23.33° C | 86% | 1014.9 hPa | 0 mm | - | 0 W/m² | - |
| 1777434003 | 23.89° C | 86% | 1014.7 hPa | 0 mm | - | 0 W/m² | - |
| 1777428603 | 24.44° C | 80% | 1014.9 hPa | 0 mm | - | 0 W/m² | - |
| 1777426504 | 25° C | 78% | 1014.4 hPa | 0 mm | - | 0 W/m² | - |
| 1777425304 | 25.56° C | 76% | 1014.7 hPa | 0 mm | - | 0 W/m² | - |
| 1777424404 | 25.56° C | 75% | 1014.6 hPa | 0 mm | - | 0 W/m² | - |
| 1777419904 | 27.22° C | 66% | 1014.3 hPa | 0 mm | - | 0 W/m² | - |
| 1777419304 | 27.22° C | 65% | 1014.2 hPa | 0 mm | - | 0 W/m² | - |
| 1777415103 | 29.44° C | 57% | 1014.2 hPa | 0 mm | - | 0 W/m² | - |
| 1777413903 | 30° C | 58% | 1014.3 hPa | 0 mm | - | 0 W/m² | - |
| 1777410003 | 30.56° C | 56% | 1014.7 hPa | 0 mm | - | 0 W/m² | - |
| 1777409703 | 30.56° C | 56% | 1014.9 hPa | 0 mm | - | 0 W/m² | - |
| 1777408203 | 30° C | 61% | 1015.1 hPa | 0 mm | - | 0 W/m² | - |
| 1777407304 | 30° C | 62% | 1015.2 hPa | 0 mm | - | 0 W/m² | - |
| 1777407004 | 30° C | 61% | 1015.4 hPa | 0 mm | - | 0 W/m² | - |
| 1777406704 | 29.44° C | 64% | 1015.6 hPa | 0 mm | - | 0 W/m² | - |
* Rain latest hour (hover to see other rain measurements)
** Current wind speed in m/s (hover to see current wind gust speed)